createdAt,value
2019-05-25T00:01:12.058Z,98613.13
2019-05-25T00:03:41.982Z,98613.13
2019-05-25T00:06:11.426Z,98619.88
2019-05-25T00:08:40.613Z,98619.52
2019-05-25T00:11:10.106Z,98613.25
2019-05-25T00:13:39.029Z,98613.25
2019-05-25T00:16:07.996Z,98609.70
2019-05-25T00:18:36.940Z,98618.24
2019-05-25T00:21:05.949Z,98609.74
2019-05-25T00:23:36.069Z,98608.73
2019-05-25T00:26:05.100Z,98612.52
2019-05-25T00:28:33.941Z,98609.03
2019-05-25T00:31:02.990Z,98606.11
2019-05-25T00:33:31.962Z,98611.72
2019-05-25T00:36:01.160Z,98605.94
2019-05-25T00:38:30.306Z,98607.94
2019-05-25T00:40:59.450Z,98615.13
2019-05-25T00:43:28.601Z,98615.13
2019-05-25T00:48:03.743Z,98616.88
2019-05-25T00:50:32.967Z,98620.11
2019-05-25T00:53:01.973Z,98615.58
2019-05-25T00:55:30.948Z,98620.02
2019-05-25T00:58:00.013Z,98616.36
2019-05-25T01:00:28.936Z,98612.41
2019-05-25T01:02:58.006Z,98614.11
2019-05-25T01:05:27.064Z,98609.34
2019-05-25T01:07:55.942Z,98615.49
2019-05-25T01:10:25.135Z,98606.27
2019-05-25T01:12:53.924Z,98605.97
2019-05-25T01:15:22.920Z,98605.67
2019-05-25T01:17:51.970Z,98601.95
2019-05-25T01:20:21.843Z,98597.85
2019-05-25T01:22:50.726Z,98610.61
2019-05-25T01:25:19.710Z,98606.23
2019-05-25T01:27:47.911Z,98603.42
2019-05-25T01:30:17.584Z,98616.25
2019-05-25T01:32:46.614Z,98614.19
2019-05-25T01:35:14.855Z,98614.19
2019-05-25T01:37:47.864Z,98617.67
2019-05-25T01:40:15.460Z,98622.61
2019-05-25T01:42:44.728Z,98629.07
2019-05-25T01:45:14.446Z,98621.59
2019-05-25T01:47:44.135Z,98627.64
2019-05-25T01:50:14.881Z,98622.19
2019-05-25T01:52:44.434Z,98627.59
2019-05-25T01:55:13.505Z,98624.89
2019-05-25T01:57:42.974Z,98620.59
2019-05-25T02:00:14.290Z,98618.02
2019-05-25T02:02:43.563Z,98617.70
2019-05-25T02:05:13.740Z,98610.24
2019-05-25T02:07:42.859Z,98610.24
2019-05-25T02:10:14.013Z,98619.98
2019-05-25T02:12:43.982Z,98618.02
2019-05-25T02:15:13.936Z,98623.16
2019-05-25T02:17:43.865Z,98617.27
2019-05-25T02:20:14.292Z,98625.37
2019-05-25T02:22:43.958Z,98623.21
2019-05-25T02:25:18.148Z,98627.11
2019-05-25T02:27:44.925Z,98627.14
2019-05-25T02:30:15.082Z,98628.57
2019-05-25T02:32:44.536Z,98625.03
2019-05-25T02:35:27.477Z,98617.45
2019-05-25T02:37:57.507Z,98617.45
2019-05-25T02:40:26.742Z,98617.39
2019-05-25T02:42:54.966Z,98615.18
2019-05-25T02:45:24.054Z,98615.38
2019-05-25T02:47:52.966Z,98618.47
2019-05-25T02:50:22.716Z,98621.69
2019-05-25T02:52:50.856Z,98609.68
2019-05-25T02:55:32.876Z,98610.14
2019-05-25T02:57:50.917Z,98613.45
2019-05-25T03:00:31.453Z,98619.75
2019-05-25T03:03:01.540Z,98614.30
2019-05-25T03:05:31.589Z,98623.17
2019-05-25T03:08:01.950Z,98616.44
2019-05-25T03:10:32.483Z,98616.44
2019-05-25T03:13:03.219Z,98619.66
2019-05-25T03:15:32.148Z,98624.75
2019-05-25T03:18:00.947Z,98630.65
2019-05-25T03:20:29.957Z,98626.73
2019-05-25T03:22:59.079Z,98619.59
2019-05-25T03:25:27.913Z,98619.81
2019-05-25T03:27:56.687Z,98630.03
2019-05-25T03:30:32.515Z,98623.65
2019-05-25T03:33:01.595Z,98634.30
2019-05-25T03:35:30.043Z,98634.27
2019-05-25T03:37:58.939Z,98634.27
2019-05-25T03:40:27.724Z,98643.20
2019-05-25T03:42:56.565Z,98639.23
2019-05-25T03:45:26.546Z,98647.02
2019-05-25T03:47:55.553Z,98647.02
2019-05-25T03:50:24.525Z,98650.70
2019-05-25T03:52:53.487Z,98650.70
2019-05-25T03:55:22.560Z,98637.16
2019-05-25T03:57:51.541Z,98637.16
2019-05-25T04:00:34.049Z,98651.86
2019-05-25T04:03:03.512Z,98651.53
2019-05-25T04:05:32.543Z,98654.50
2019-05-25T04:08:02.731Z,98653.05
2019-05-25T04:10:30.879Z,98653.05
2019-05-25T04:13:00.518Z,98656.60
2019-05-25T04:15:29.539Z,98661.29
2019-05-25T04:17:58.763Z,98667.05
2019-05-25T04:20:29.100Z,98660.61
2019-05-25T04:22:58.122Z,98668.37
2019-05-25T04:25:27.128Z,98660.74
2019-05-25T04:27:56.112Z,98664.30
2019-05-25T04:30:25.052Z,98666.11
2019-05-25T04:32:53.997Z,98674.42
2019-05-25T04:35:23.065Z,98679.48
2019-05-25T04:37:51.928Z,98676.23
2019-05-25T04:40:23.165Z,98673.76
2019-05-25T04:42:52.688Z,98673.28
2019-05-25T04:45:20.965Z,98677.33
2019-05-25T04:47:50.297Z,98675.84
2019-05-25T04:50:20.713Z,98675.33
2019-05-25T04:52:49.254Z,98676.89
2019-05-25T04:55:18.506Z,98683.88
2019-05-25T04:57:47.723Z,98681.06
2019-05-25T05:00:17.014Z,98683.50
2019-05-25T05:02:46.285Z,98691.35
2019-05-25T05:05:15.724Z,98688.95
2019-05-25T05:07:43.968Z,98679.47
2019-05-25T05:10:15.559Z,98685.52
2019-05-25T05:12:44.695Z,98684.77
2019-05-25T05:15:14.439Z,98687.83
2019-05-25T05:17:45.754Z,98687.83
2019-05-25T05:20:14.313Z,98693.33
2019-05-25T05:22:43.572Z,98694.11
2019-05-25T05:25:12.798Z,98688.97
2019-05-25T05:27:41.694Z,98697.60
2019-05-25T05:30:11.479Z,98689.84
2019-05-25T05:32:40.410Z,98693.97
2019-05-25T05:35:11.638Z,98699.57
2019-05-25T05:37:41.837Z,98696.41
2019-05-25T05:40:12.704Z,98696.91
2019-05-25T05:42:45.046Z,98700.50
2019-05-25T05:45:15.414Z,98707.08
2019-05-25T05:47:47.702Z,98707.03
2019-05-25T05:50:16.999Z,98709.47
2019-05-25T05:52:48.595Z,98709.16
2019-05-25T05:55:29.497Z,98707.11
2019-05-25T05:57:58.427Z,98698.08
2019-05-25T06:00:27.658Z,98703.55
2019-05-25T06:02:55.954Z,98703.53
2019-05-25T06:05:25.107Z,98703.53
2019-05-25T06:07:53.939Z,98703.58
2019-05-25T06:10:23.090Z,98710.42
2019-05-25T06:12:52.391Z,98716.09
2019-05-25T06:15:21.518Z,98711.76
2019-05-25T06:17:50.951Z,98722.39
2019-05-25T06:20:20.437Z,98722.39
2019-05-25T06:22:49.676Z,98719.87
2019-05-25T06:25:18.440Z,98727.41
2019-05-25T06:27:47.586Z,98726.51
2019-05-25T06:30:16.364Z,98723.50
2019-05-25T06:32:46.389Z,98726.55
2019-05-25T06:35:16.730Z,98726.89
2019-05-25T06:37:46.506Z,98734.06
2019-05-25T06:40:18.290Z,98745.27
2019-05-25T06:42:47.459Z,98744.48
2019-05-25T06:45:17.438Z,98742.44
2019-05-25T06:47:46.797Z,98753.63
2019-05-25T06:50:17.633Z,98748.02
2019-05-25T06:52:46.836Z,98753.03
2019-05-25T06:55:16.909Z,98753.03
2019-05-25T06:57:46.291Z,98748.28
2019-05-25T07:00:17.897Z,98746.63
2019-05-25T07:02:47.096Z,98746.72
2019-05-25T07:05:16.775Z,98744.85
2019-05-25T07:07:46.151Z,98751.54
2019-05-25T07:10:16.093Z,98748.20
2019-05-25T07:12:46.454Z,98751.73
2019-05-25T07:15:16.783Z,98755.26
2019-05-25T07:17:45.980Z,98752.19
2019-05-25T07:20:15.623Z,98751.23
2019-05-25T07:22:45.002Z,98746.45
2019-05-25T07:25:14.738Z,98752.59
2019-05-25T07:27:58.327Z,98765.13
2019-05-25T07:30:14.523Z,98743.26
2019-05-25T07:32:43.600Z,98757.95
2019-05-25T07:35:12.985Z,98746.92
2019-05-25T07:37:42.297Z,98746.92
2019-05-25T07:40:11.747Z,98754.92
2019-05-25T07:42:40.528Z,98756.09
2019-05-25T07:45:10.849Z,98759.19
2019-05-25T07:47:40.093Z,98752.64
2019-05-25T07:50:09.977Z,98750.73
2019-05-25T07:52:39.431Z,98746.30
2019-05-25T07:55:09.031Z,98745.82
2019-05-25T07:57:39.416Z,98748.13
2019-05-25T08:00:09.646Z,98749.81
2019-05-25T08:02:39.743Z,98749.51
2019-05-25T08:05:08.296Z,98753.45
2019-05-25T08:07:37.496Z,98755.65
2019-05-25T08:10:07.739Z,98742.67
2019-05-25T08:12:37.738Z,98747.08
2019-05-25T08:15:06.566Z,98755.12
2019-05-25T08:17:35.749Z,98748.30
2019-05-25T08:20:04.616Z,98748.30
2019-05-25T08:22:34.040Z,98753.69
2019-05-25T08:25:03.576Z,98740.45
2019-05-25T08:27:32.046Z,98748.12
2019-05-25T08:30:00.936Z,98748.12
2019-05-25T08:32:30.103Z,98750.04
2019-05-25T08:34:59.106Z,98737.59
2019-05-25T08:37:28.306Z,98739.12
2019-05-25T08:39:57.605Z,98736.58
2019-05-25T08:42:26.709Z,98722.80
2019-05-25T08:44:56.018Z,98722.80
2019-05-25T08:47:25.495Z,98725.97
2019-05-25T08:49:54.799Z,98730.30
2019-05-25T08:52:23.779Z,98739.96
2019-05-25T08:54:53.127Z,98734.51
2019-05-25T08:57:22.431Z,98737.89
2019-05-25T08:59:51.582Z,98732.00
2019-05-25T09:02:20.707Z,98730.23
2019-05-25T09:04:48.940Z,98724.82
2019-05-25T09:10:06.300Z,98730.42
2019-05-25T09:12:35.472Z,98720.89
2019-05-25T09:15:07.955Z,98710.45
2019-05-25T09:17:37.010Z,98710.45
2019-05-25T09:20:10.606Z,98720.82
2019-05-25T09:22:39.053Z,98734.17
2019-05-25T09:25:08.987Z,98734.17
2019-05-25T09:27:38.294Z,98732.12
2019-05-25T09:30:09.912Z,98734.00
2019-05-25T09:32:39.020Z,98722.88
2019-05-25T09:35:08.562Z,98725.22
2019-05-25T09:37:37.928Z,98720.05
2019-05-25T09:40:08.308Z,98721.16
2019-05-25T09:42:38.364Z,98731.30
2019-05-25T09:45:08.587Z,98734.98
2019-05-25T09:47:37.261Z,98729.45
2019-05-25T09:50:07.807Z,98726.35
2019-05-25T09:52:37.832Z,98727.01
2019-05-25T09:55:08.549Z,98716.47
2019-05-25T09:57:37.283Z,98710.05
2019-05-25T10:00:08.918Z,98710.05
2019-05-25T10:02:38.474Z,98696.09
2019-05-25T10:05:08.446Z,98697.48
2019-05-25T10:07:37.834Z,98697.48
2019-05-25T10:10:09.464Z,98691.92
2019-05-25T10:12:38.748Z,98694.58
2019-05-25T10:15:08.524Z,98688.27
2019-05-25T10:17:37.654Z,98689.94
2019-05-25T10:20:07.017Z,98691.30
2019-05-25T10:22:36.072Z,98688.84
2019-05-25T10:25:07.285Z,98695.83
2019-05-25T10:27:36.746Z,98694.25
2019-05-25T10:30:06.913Z,98705.89
2019-05-25T10:32:35.946Z,98702.36
2019-05-25T10:35:06.487Z,98705.41
2019-05-25T10:37:36.077Z,98711.30
2019-05-25T10:40:07.260Z,98717.92
2019-05-25T10:42:36.505Z,98720.03
2019-05-25T10:45:06.422Z,98716.88
2019-05-25T10:47:35.716Z,98717.97
2019-05-25T10:50:05.046Z,98719.33
2019-05-25T10:52:34.569Z,98714.66
2019-05-25T10:55:04.152Z,98713.91
2019-05-25T10:57:33.298Z,98729.15
2019-05-25T11:00:02.751Z,98740.87
2019-05-25T11:02:32.519Z,98748.44
2019-05-25T11:05:02.146Z,98749.36
2019-05-25T11:07:32.061Z,98746.69
2019-05-25T11:10:03.397Z,98747.43
2019-05-25T11:12:32.570Z,98750.63
2019-05-25T11:15:01.848Z,98740.20
2019-05-25T11:17:31.521Z,98740.20
2019-05-25T11:20:00.580Z,98746.84
2019-05-25T11:22:30.081Z,98757.66
2019-05-25T11:24:59.182Z,98757.66
2019-05-25T11:27:29.505Z,98752.55
2019-05-25T11:30:08.461Z,98758.13
2019-05-25T11:32:30.040Z,98739.31
2019-05-25T11:34:59.840Z,98725.19
2019-05-25T11:37:29.308Z,98711.30
2019-05-25T11:40:00.357Z,98700.56
2019-05-25T11:42:31.069Z,98686.31
2019-05-25T11:45:00.118Z,98701.75
2019-05-25T11:47:28.973Z,98700.86
2019-05-25T11:49:58.852Z,98696.86
2019-05-25T11:52:29.459Z,98687.04
2019-05-25T11:54:58.431Z,98682.91
2019-05-25T11:57:27.434Z,98675.77
2019-05-25T11:59:56.612Z,98670.80
2019-05-25T12:02:25.576Z,98683.58
2019-05-25T12:04:54.734Z,98683.58
2019-05-25T12:07:22.887Z,98686.24
2019-05-25T12:09:51.839Z,98692.75
2019-05-25T12:12:25.750Z,98681.31
2019-05-25T12:15:00.929Z,98681.30
2019-05-25T12:17:34.525Z,98674.59
2019-05-25T12:20:04.562Z,98684.36
2019-05-25T12:22:33.899Z,98684.36
2019-05-25T12:25:03.141Z,98689.11
2019-05-25T12:27:32.117Z,98692.17
2019-05-25T12:30:01.120Z,98678.59
2019-05-25T12:32:30.549Z,98675.22
2019-05-25T12:34:59.022Z,98660.20
2019-05-25T12:37:28.114Z,98660.20
2019-05-25T12:39:57.124Z,98665.04
2019-05-25T12:42:26.284Z,98659.00
2019-05-25T12:44:55.490Z,98652.78
2019-05-25T12:47:24.492Z,98655.98
2019-05-25T12:49:53.539Z,98660.25
2019-05-25T12:52:22.660Z,98663.41
2019-05-25T12:54:53.335Z,98665.31
2019-05-25T12:57:24.207Z,98671.65
2019-05-25T12:59:53.530Z,98664.72
2019-05-25T13:02:21.857Z,98674.75
2019-05-25T13:04:51.102Z,98664.72
2019-05-25T13:07:20.521Z,98665.62
2019-05-25T13:09:49.434Z,98665.55
2019-05-25T13:12:19.767Z,98667.48
2019-05-25T13:14:49.596Z,98666.55
2019-05-25T13:17:19.652Z,98658.57
2019-05-25T13:19:48.560Z,98658.57
2019-05-25T13:22:17.470Z,98645.50
2019-05-25T13:24:47.161Z,98640.22
2019-05-25T13:27:16.380Z,98640.22
2019-05-25T13:29:46.370Z,98642.26
2019-05-25T13:32:17.098Z,98640.72
2019-05-25T13:34:47.019Z,98631.86
2019-05-25T13:37:17.819Z,98630.51
2019-05-25T13:39:48.084Z,98628.31
2019-05-25T13:42:17.618Z,98622.02
2019-05-25T13:44:47.511Z,98625.76
2019-05-25T13:47:17.443Z,98618.02
2019-05-25T13:49:46.852Z,98623.75
2019-05-25T13:52:16.951Z,98623.75
2019-05-25T13:54:46.970Z,98616.20
2019-05-25T13:57:16.820Z,98616.02
2019-05-25T13:59:47.156Z,98618.45
2019-05-25T14:02:16.546Z,98614.77
2019-05-25T14:04:45.581Z,98614.47
2019-05-25T14:07:17.297Z,98616.02
2019-05-25T14:09:46.932Z,98609.39
2019-05-25T14:12:15.963Z,98610.69
2019-05-25T14:14:44.983Z,98609.14
2019-05-25T14:17:14.210Z,98603.13
2019-05-25T14:19:43.707Z,98602.36
2019-05-25T14:22:12.445Z,98610.65
2019-05-25T14:24:42.044Z,98614.06
2019-05-25T14:27:11.488Z,98623.36
2019-05-25T14:29:40.747Z,98628.51
2019-05-25T14:32:10.462Z,98628.51
2019-05-25T14:34:39.605Z,98627.55
2019-05-25T15:20:27.574Z,98789.63
2019-05-25T15:22:57.073Z,98805.73
2019-05-25T15:25:26.588Z,98819.10
2019-05-25T15:27:56.543Z,98839.95
2019-05-25T15:30:25.985Z,98843.34
2019-05-25T15:32:55.852Z,98843.34
2019-05-25T15:35:25.017Z,98847.67
2019-05-25T15:37:54.309Z,98852.58
2019-05-25T15:40:23.507Z,98849.41
2019-05-25T15:42:52.626Z,98847.36
2019-05-25T15:45:21.454Z,98847.36
2019-05-25T15:47:50.674Z,98843.80
2019-05-25T15:50:52.357Z,98843.82
2019-05-25T15:53:21.803Z,98841.94
2019-05-25T15:55:51.743Z,98838.92
2019-05-25T15:58:20.808Z,98844.37
2019-05-25T16:00:51.880Z,98834.23
2019-05-25T16:03:22.078Z,98831.31
2019-05-25T16:05:53.090Z,98825.59
2019-05-25T16:08:25.959Z,98819.30
2019-05-25T16:10:56.807Z,98801.05
2019-05-25T16:13:26.160Z,98787.61
2019-05-25T16:15:55.549Z,98789.89
2019-05-25T16:18:24.761Z,98797.37
2019-05-25T16:20:55.597Z,98797.37
2019-05-25T16:23:24.897Z,98797.12
2019-05-25T16:25:54.069Z,98801.78
2019-05-25T16:28:23.495Z,98806.63
2019-05-25T16:30:53.072Z,98801.73
2019-05-25T16:33:22.031Z,98801.73
2019-05-25T16:35:52.242Z,98809.91
2019-05-25T16:41:42.234Z,98833.52
2019-05-25T16:44:23.449Z,98833.52
2019-05-25T16:46:55.841Z,98823.77
2019-05-25T16:50:38.870Z,98823.77
2019-05-25T16:52:09.075Z,98825.09
2019-05-25T16:54:40.350Z,98817.23
2019-05-25T16:57:15.503Z,98833.30
2019-05-25T16:59:55.476Z,98818.72
2019-05-25T17:02:32.050Z,98814.93
2019-05-25T17:05:13.738Z,98814.93
2019-05-25T17:07:51.957Z,98817.81
2019-05-25T17:10:53.647Z,98816.22
2019-05-25T17:13:23.155Z,98810.32
2019-05-25T17:15:54.591Z,98809.61
2019-05-25T17:18:26.646Z,98810.20
2019-05-25T17:20:59.802Z,98799.70
2019-05-25T17:23:35.548Z,98800.77
2019-05-25T17:26:07.763Z,98803.97
2019-05-25T17:28:41.945Z,98803.97
2019-05-25T17:31:11.890Z,98803.38
2019-05-25T17:33:48.304Z,98798.78
2019-05-25T17:36:20.707Z,98805.86
2019-05-25T17:38:53.892Z,98803.67
2019-05-25T17:41:38.337Z,98798.98
2019-05-25T17:44:07.941Z,98805.88
2019-05-25T17:46:37.865Z,98802.95
2019-05-25T17:49:21.963Z,98803.92
2019-05-25T17:51:57.475Z,98801.97
2019-05-25T17:54:46.572Z,98802.00
2019-05-25T17:59:59.835Z,98801.81
2019-05-25T18:02:49.904Z,98798.92
2019-05-25T18:05:46.756Z,98801.07
2019-05-25T18:08:13.070Z,98798.44
2019-05-25T18:10:52.579Z,98794.97
2019-05-25T18:13:13.114Z,98791.97
2019-05-25T18:15:41.972Z,98794.92
2019-05-25T18:18:10.938Z,98799.31
2019-05-25T18:20:39.954Z,98797.20
2019-05-25T18:23:09.302Z,98801.83
2019-05-25T18:25:38.473Z,98800.88
2019-05-25T18:28:08.311Z,98802.93
2019-05-25T18:30:37.452Z,98803.05
2019-05-25T18:33:06.562Z,98810.33
2019-05-25T18:35:35.837Z,98812.89
2019-05-25T18:38:05.100Z,98815.34
2019-05-25T18:40:36.737Z,98815.94
2019-05-25T18:43:05.715Z,98809.30
2019-05-25T18:45:33.887Z,98812.37
2019-05-25T18:48:03.465Z,98811.17
2019-05-25T18:50:33.248Z,98806.01
2019-05-25T18:53:02.452Z,98806.01
2019-05-25T18:55:31.705Z,98819.33
2019-05-25T18:57:59.923Z,98817.13
2019-05-25T19:00:30.060Z,98822.16
2019-05-25T19:02:59.479Z,98815.53
2019-05-25T19:05:28.475Z,98821.09
2019-05-25T19:07:57.624Z,98820.47
2019-05-25T19:10:27.138Z,98831.14
2019-05-25T19:12:57.855Z,98823.27
2019-05-25T19:15:27.338Z,98820.98
2019-05-25T19:17:56.989Z,98818.22
2019-05-25T19:20:26.138Z,98820.80
2019-05-25T19:22:55.485Z,98822.50
2019-05-25T19:25:24.748Z,98820.53
2019-05-25T19:27:53.056Z,98825.80
2019-05-25T19:30:22.757Z,98825.84
2019-05-25T19:32:51.623Z,98829.16
2019-05-25T19:35:21.613Z,98830.57
2019-05-25T19:37:50.899Z,98830.57
2019-05-25T19:40:21.567Z,98830.61
2019-05-25T19:42:51.247Z,98840.94
2019-05-25T19:45:21.580Z,98826.13
2019-05-25T19:47:51.675Z,98846.83
2019-05-25T19:50:20.612Z,98844.88
2019-05-25T19:52:50.468Z,98844.88
2019-05-25T19:55:20.269Z,98841.51
2019-05-25T19:57:50.340Z,98841.51
2019-05-25T20:00:20.436Z,98849.36
2019-05-25T20:02:50.479Z,98847.09
2019-05-25T20:05:21.752Z,98851.18
2019-05-25T20:07:52.131Z,98851.23
2019-05-25T20:10:23.004Z,98857.95
2019-05-25T20:12:52.900Z,98862.16
2019-05-25T20:15:24.788Z,98865.21
2019-05-25T20:17:53.839Z,98855.45
2019-05-25T20:20:23.081Z,98857.43
2019-05-25T20:22:52.763Z,98868.03
2019-05-25T20:25:22.147Z,98869.10
2019-05-25T20:27:52.132Z,98860.81
2019-05-25T20:30:22.596Z,98869.14
2019-05-25T20:32:51.573Z,98871.95
2019-05-25T20:35:32.580Z,98871.95
2019-05-25T20:37:52.915Z,98869.55
2019-05-25T20:40:22.964Z,98870.19
2019-05-25T20:42:53.462Z,98874.13
2019-05-25T20:45:22.612Z,98878.59
2019-05-25T20:47:52.622Z,98885.25
2019-05-25T20:50:20.918Z,98886.69
2019-05-25T20:52:50.043Z,98886.69
2019-05-25T20:55:19.317Z,98887.61
2019-05-25T20:57:48.466Z,98887.92
2019-05-25T21:00:18.312Z,98890.41
2019-05-25T21:03:04.811Z,98894.03
2019-05-25T21:05:19.033Z,98893.75
2019-05-25T21:07:49.923Z,98896.72
2019-05-25T21:10:19.003Z,98899.83
2019-05-25T21:12:48.435Z,98894.56
2019-05-25T21:15:18.317Z,98901.44
2019-05-25T21:17:48.018Z,98892.03
2019-05-25T21:20:17.094Z,98895.67
2019-05-25T21:22:46.496Z,98896.67
2019-05-25T21:30:51.181Z,98890.91
2019-05-25T21:33:22.322Z,98904.56
2019-05-25T21:36:06.930Z,98900.03
2019-05-25T21:38:23.543Z,98899.44
2019-05-25T21:40:53.806Z,98906.68
2019-05-25T21:43:23.102Z,98905.73
2019-05-25T21:45:52.458Z,98908.23
2019-05-25T21:48:22.322Z,98903.41
2019-05-25T21:50:52.149Z,98906.91
2019-05-25T21:53:22.475Z,98908.70
2019-05-25T21:55:52.134Z,98912.17
2019-05-25T21:58:23.103Z,98918.14
2019-05-25T22:00:53.308Z,98911.64
2019-05-25T22:03:24.119Z,98918.33
2019-05-25T22:05:53.891Z,98913.07
2019-05-25T22:08:23.587Z,98918.95
2019-05-25T22:10:53.467Z,98908.24
2019-05-25T22:13:28.301Z,98908.24
2019-05-25T22:15:53.927Z,98913.59
2019-05-25T22:18:24.737Z,98924.07
2019-05-25T22:20:53.728Z,98920.98
2019-05-25T22:23:22.675Z,98920.81
2019-05-25T22:25:51.920Z,98922.30
2019-05-25T22:28:22.343Z,98921.81
2019-05-25T22:30:52.513Z,98926.23
2019-05-25T22:33:21.738Z,98926.34
2019-05-25T22:35:50.489Z,98938.01
2019-05-25T22:38:46.880Z,98933.17
2019-05-25T22:41:20.027Z,98935.03
2019-05-25T22:43:50.596Z,98925.29
2019-05-25T22:46:20.335Z,98930.50
2019-05-25T22:48:49.015Z,98930.50
2019-05-25T22:51:18.564Z,98934.11
2019-05-25T22:53:48.738Z,98927.72
2019-05-25T22:56:19.410Z,98928.66
2019-05-25T22:58:49.576Z,98916.59
2019-05-25T23:01:20.969Z,98925.06
2019-05-25T23:03:50.457Z,98926.86
2019-05-25T23:06:20.579Z,98918.02
2019-05-25T23:08:49.534Z,98907.38
2019-05-25T23:11:19.141Z,98917.52
2019-05-25T23:13:49.961Z,98917.52
2019-05-25T23:16:23.459Z,98920.09
2019-05-25T23:18:53.788Z,98925.98
2019-05-25T23:21:22.713Z,98920.15
2019-05-25T23:23:52.556Z,98918.58
2019-05-25T23:26:21.556Z,98920.42
2019-05-25T23:28:50.263Z,98914.41
2019-05-25T23:31:19.720Z,98914.41
2019-05-25T23:33:49.483Z,98917.13
2019-05-25T23:36:19.989Z,98924.37
2019-05-25T23:38:49.308Z,98916.25
2019-05-25T23:41:18.821Z,98914.80
2019-05-25T23:43:49.000Z,98907.58
2019-05-25T23:46:19.487Z,98915.86
2019-05-25T23:48:48.566Z,98917.69
2019-05-25T23:51:17.444Z,98915.66
2019-05-25T23:53:46.571Z,98918.13
2019-05-25T23:56:15.458Z,98919.35
2019-05-25T23:58:44.449Z,98917.80
